Time;durP1;ratioP1;P1;durP2;ratioP2;P2;SDS_P1;SDS_P2;PMS_P1;PMS_P2;Temp;Humidity;BMP_temperature;BMP_pressure;BME280_temperature;BME280_humidity;BME280_pressure;Samples;Min_cycle;Max_cycle;Signal;HPM_P1;HPM_P2
2022/06/18 00:00:21;;;;;;;28.08;4.70;;;;;;;18.05;100.00;98546.38;5006382;28;20029;-59
2022/06/18 00:02:47;;;;;;;31.48;5.05;;;;;;;17.86;100.00;98544.88;5007741;28;20022;-59
2022/06/18 00:05:16;;;;;;;23.75;4.63;;;;;;;17.94;100.00;98548.81;5008234;28;20398;-59
2022/06/18 00:08:22;;;;;;;22.52;4.88;;;;;;;18.12;100.00;98547.66;5008779;28;20436;-60
2022/06/18 00:10:53;;;;;;;25.77;4.88;;;;;;;17.89;100.00;98542.06;4999626;28;20048;-60
2022/06/18 00:13:42;;;;;;;24.58;4.50;;;;;;;17.96;100.00;98550.44;5012950;28;20033;-59
2022/06/18 00:16:15;;;;;;;29.88;4.82;;;;;;;17.74;100.00;98548.25;5011067;28;20490;-60
2022/06/18 00:18:41;;;;;;;41.00;5.70;;;;;;;17.08;100.00;98553.06;5012059;28;20025;-59
2022/06/18 00:21:09;;;;;;;32.85;5.10;;;;;;;17.23;100.00;98543.41;5011378;28;20041;-59
2022/06/18 00:23:37;;;;;;;21.50;4.35;;;;;;;17.38;100.00;98544.25;5012790;28;20030;-60
2022/06/18 00:26:02;;;;;;;32.90;5.20;;;;;;;17.13;100.00;98544.91;5013681;28;20041;-60
2022/06/18 00:28:30;;;;;;;29.17;5.20;;;;;;;17.12;100.00;98544.03;5013745;28;20036;-59
2022/06/18 00:30:56;;;;;;;24.80;4.85;;;;;;;17.12;100.00;98543.19;5011074;28;20081;-59
2022/06/18 00:33:22;;;;;;;26.92;4.70;;;;;;;16.92;100.00;98536.44;5011748;28;20030;-59
2022/06/18 00:35:51;;;;;;;29.27;4.78;;;;;;;17.11;100.00;98542.34;5013277;28;20042;-58
2022/06/18 00:38:30;;;;;;;31.25;4.80;;;;;;;17.37;100.00;98537.31;5012561;28;20037;-59
2022/06/18 00:40:57;;;;;;;26.08;4.63;;;;;;;17.32;100.00;98539.38;5009914;28;20476;-58
2022/06/18 00:43:46;;;;;;;31.48;5.40;;;;;;;17.33;100.00;98541.06;5011224;28;20025;-61
2022/06/18 00:46:45;;;;;;;25.70;4.57;;;;;;;17.25;100.00;98543.31;5013254;28;20034;-59
2022/06/18 00:49:30;;;;;;;78.15;9.32;;;;;;;17.10;100.00;98540.63;5008445;28;20044;-59
2022/06/18 00:52:04;;;;;;;27.48;4.95;;;;;;;17.10;100.00;98540.63;5010095;28;20136;-60
2022/06/18 00:54:44;;;;;;;30.08;5.32;;;;;;;16.96;100.00;98545.88;5012215;28;20009;-60
2022/06/18 00:57:20;;;;;;;23.55;4.35;;;;;;;16.94;100.00;98542.47;5010602;28;20029;-58
2022/06/18 01:00:20;;;;;;;29.20;4.88;;;;;;;17.14;100.00;98539.50;5010066;28;20291;-60
2022/06/18 01:02:48;;;;;;;25.27;4.57;;;;;;;17.03;100.00;98536.66;4994620;28;20080;-60
2022/06/18 01:05:33;;;;;;;20.63;4.10;;;;;;;17.34;100.00;98542.75;5010975;28;20039;-61
2022/06/18 01:08:03;;;;;;;20.85;4.30;;;;;;;16.74;100.00;98528.66;5010203;28;20026;-59
2022/06/18 01:10:38;;;;;;;27.77;4.72;;;;;;;16.61;100.00;98524.19;5009824;28;20737;-59
2022/06/18 01:13:11;;;;;;;23.85;4.50;;;;;;;16.70;100.00;98516.59;5011444;28;20026;-59
2022/06/18 01:15:38;;;;;;;31.35;4.97;;;;;;;16.71;100.00;98518.28;5011732;28;20536;-59
2022/06/18 01:18:05;;;;;;;26.02;4.40;;;;;;;16.89;100.00;98515.53;5010071;28;20110;-58
2022/06/18 01:20:38;;;;;;;31.55;5.25;;;;;;;16.93;100.00;98507.38;5009759;28;20034;-59
2022/06/18 01:23:16;;;;;;;26.63;4.68;;;;;;;16.67;100.00;98506.25;5010307;28;20032;-59
2022/06/18 01:25:42;;;;;;;30.20;5.00;;;;;;;16.83;100.00;98505.38;5010006;28;20075;-59
2022/06/18 01:28:09;;;;;;;24.80;4.55;;;;;;;16.70;100.00;98506.03;5013016;28;20104;-59
2022/06/18 01:30:38;;;;;;;25.00;4.38;;;;;;;16.62;100.00;98502.19;5010863;28;20049;-60
2022/06/18 01:33:08;;;;;;;32.83;5.25;;;;;;;16.73;100.00;98500.59;5012849;28;20028;-59
2022/06/18 01:35:37;;;;;;;21.15;4.15;;;;;;;16.76;100.00;98505.72;5009881;28;20033;-59
2022/06/18 01:38:05;;;;;;;24.88;4.55;;;;;;;16.81;100.00;98496.69;5009566;28;20113;-59
2022/06/18 01:40:42;;;;;;;33.80;5.18;;;;;;;16.52;100.00;98501.84;5010146;28;20065;-59
2022/06/18 01:43:12;;;;;;;24.35;4.70;;;;;;;16.63;100.00;98502.06;5010254;28;20448;-58
2022/06/18 01:45:39;;;;;;;29.17;5.20;;;;;;;16.29;100.00;98500.53;5009535;28;20033;-59
2022/06/18 01:48:19;;;;;;;26.30;4.85;;;;;;;16.44;100.00;98498.81;5010662;28;20029;-59
2022/06/18 01:50:54;;;;;;;30.80;5.10;;;;;;;16.57;100.00;98499.81;5009157;28;20095;-60
2022/06/18 01:53:24;;;;;;;26.08;4.72;;;;;;;16.04;100.00;98496.63;5009862;28;20128;-59
2022/06/18 01:56:03;;;;;;;29.73;5.03;;;;;;;15.17;100.00;98500.34;5009838;28;20038;-59
2022/06/18 01:58:37;;;;;;;27.70;5.05;;;;;;;15.54;100.00;98487.91;5008674;28;20049;-60
2022/06/18 02:01:09;;;;;;;34.28;5.38;;;;;;;15.80;100.00;98489.13;5010195;28;20037;-58
2022/06/18 02:03:36;;;;;;;26.25;4.95;;;;;;;15.77;100.00;98489.31;5008874;28;20025;-61
2022/06/18 02:06:01;;;;;;;30.02;5.15;;;;;;;15.83;100.00;98487.31;5008963;28;20042;-59
2022/06/18 02:08:27;;;;;;;34.08;5.50;;;;;;;15.67;100.00;98481.97;5010937;28;20029;-58
2022/06/18 02:10:57;;;;;;;24.45;4.65;;;;;;;15.88;100.00;98480.84;5009533;28;20038;-58
2022/06/18 02:13:28;;;;;;;22.80;4.63;;;;;;;15.61;100.00;98472.66;5009505;28;20021;-58
2022/06/18 02:15:57;;;;;;;23.75;4.88;;;;;;;16.03;100.00;98473.03;5010321;28;20088;-58
2022/06/18 02:18:23;;;;;;;26.83;4.95;;;;;;;15.81;100.00;98476.84;5008794;28;20103;-58
2022/06/18 02:20:51;;;;;;;29.48;4.80;;;;;;;16.02;100.00;98471.34;5009352;28;20495;-59
2022/06/18 02:23:22;;;;;;;30.27;5.25;;;;;;;15.84;100.00;98479.31;5008866;28;20033;-59
2022/06/18 02:25:47;;;;;;;26.92;5.03;;;;;;;15.88;100.00;98475.59;5009681;28;20073;-59
2022/06/18 02:28:37;;;;;;;30.02;5.28;;;;;;;15.54;100.00;98469.50;5009830;28;20056;-59
2022/06/18 02:31:03;;;;;;;22.38;4.53;;;;;;;15.33;100.00;98465.38;5009693;28;20112;-59
2022/06/18 02:33:41;;;;;;;27.50;4.78;;;;;;;15.66;100.00;98467.13;5007724;28;20018;-59
2022/06/18 02:36:20;;;;;;;26.08;4.80;;;;;;;15.72;100.00;98472.06;5008246;28;20049;-58
2022/06/18 02:38:47;;;;;;;34.67;5.35;;;;;;;15.58;100.00;98467.53;5010623;28;20136;-60
2022/06/18 02:41:13;;;;;;;28.23;4.85;;;;;;;15.66;100.00;98462.75;5009333;28;20037;-60
2022/06/18 02:43:41;;;;;;;26.05;4.97;;;;;;;15.42;100.00;98459.66;5010260;28;20032;-58
2022/06/18 02:46:06;;;;;;;27.90;4.80;;;;;;;15.06;100.00;98465.06;5009153;28;20566;-59
2022/06/18 02:48:35;;;;;;;38.90;6.20;;;;;;;15.16;100.00;98466.25;5009199;28;20038;-60
2022/06/18 02:51:00;;;;;;;32.15;5.30;;;;;;;15.13;100.00;98464.66;5008727;28;20034;-59
2022/06/18 02:53:27;;;;;;;25.85;4.85;;;;;;;15.24;100.00;98469.34;5009412;28;20845;-59
2022/06/18 02:55:56;;;;;;;30.80;5.40;;;;;;;15.17;100.00;98458.31;5008749;28;20048;-59
2022/06/18 02:58:38;;;;;;;29.08;5.10;;;;;;;15.17;100.00;98471.44;5010659;28;20033;-60
2022/06/18 03:01:07;;;;;;;24.65;4.95;;;;;;;15.12;100.00;98468.19;5009669;28;20076;-59
2022/06/18 03:03:38;;;;;;;33.58;5.57;;;;;;;15.22;100.00;98465.97;5008493;28;20491;-58
2022/06/18 03:06:05;;;;;;;30.23;5.38;;;;;;;15.47;100.00;98460.22;5008778;28;20509;-60
2022/06/18 03:08:31;;;;;;;32.85;5.55;;;;;;;15.40;100.00;98461.50;5009364;28;20022;-60
2022/06/18 03:13:41;;;;;;;29.90;4.95;;;;;;;15.46;100.00;98461.19;5008755;28;20040;-60
2022/06/18 03:16:09;;;;;;;27.42;5.00;;;;;;;15.43;100.00;98463.97;5008061;28;20034;-60
2022/06/18 03:18:36;;;;;;;30.10;5.28;;;;;;;15.54;100.00;98456.34;5009267;28;20029;-60
2022/06/18 03:21:51;;;;;;;27.25;5.13;;;;;;;15.41;100.00;98461.41;5007348;28;20033;-59
2022/06/18 03:24:16;;;;;;;30.48;5.03;;;;;;;15.38;100.00;98450.22;5000437;28;20424;-59
2022/06/18 03:26:42;;;;;;;29.30;5.25;;;;;;;15.45;100.00;98454.22;5008221;28;20765;-58
2022/06/18 03:29:08;;;;;;;31.33;5.35;;;;;;;15.39;100.00;98458.00;5007605;28;20057;-58
2022/06/18 03:31:35;;;;;;;32.50;5.28;;;;;;;15.40;100.00;98453.59;5008661;28;20034;-59
2022/06/18 03:34:01;;;;;;;25.52;5.05;;;;;;;15.60;100.00;98453.41;5009715;28;20649;-58
2022/06/18 03:36:27;;;;;;;27.13;5.00;;;;;;;15.74;100.00;98442.16;5009057;28;20103;-58
2022/06/18 03:38:52;;;;;;;32.38;5.53;;;;;;;15.59;100.00;98449.06;5008592;28;20034;-58
2022/06/18 03:41:19;;;;;;;26.38;5.25;;;;;;;15.44;100.00;98449.91;5007444;28;20045;-59
2022/06/18 03:43:45;;;;;;;30.15;5.38;;;;;;;15.53;100.00;98449.41;5007847;28;20507;-58
2022/06/18 03:46:13;;;;;;;26.05;5.28;;;;;;;15.57;100.00;98450.94;5011514;28;20120;-60
2022/06/18 03:48:50;;;;;;;38.25;6.05;;;;;;;15.68;100.00;98446.84;5013381;28;20032;-58
2022/06/18 03:51:17;;;;;;;31.20;5.30;;;;;;;15.68;100.00;98441.59;5010946;28;20041;-60
2022/06/18 03:53:43;;;;;;;25.23;4.85;;;;;;;15.69;100.00;98449.41;5015664;28;20100;-59
2022/06/18 03:56:11;;;;;;;30.30;5.35;;;;;;;15.91;100.00;98443.00;5011473;28;20649;-58
2022/06/18 03:58:38;;;;;;;37.85;6.35;;;;;;;15.94;100.00;98440.22;5012672;28;20157;-60
2022/06/18 04:01:03;;;;;;;36.60;6.15;;;;;;;16.04;100.00;98449.25;5010604;28;20053;-60
2022/06/18 04:03:28;;;;;;;34.33;6.90;;;;;;;16.28;100.00;98447.03;5008693;28;20034;-60
2022/06/18 04:05:54;;;;;;;35.15;7.18;;;;;;;16.14;100.00;98449.59;5012911;28;20045;-60
2022/06/18 04:08:20;;;;;;;33.95;7.20;;;;;;;16.64;100.00;98445.00;5012046;28;20756;-59
2022/06/18 04:10:46;;;;;;;28.90;5.13;;;;;;;16.15;100.00;98451.28;5010962;28;20048;-59
2022/06/18 04:13:12;;;;;;;32.38;5.38;;;;;;;16.64;100.00;98448.47;5012008;28;20119;-58
2022/06/18 04:15:38;;;;;;;31.42;5.18;;;;;;;17.19;100.00;98443.53;5012247;28;20040;-59
2022/06/18 04:18:05;;;;;;;23.95;4.68;;;;;;;16.88;100.00;98450.63;5012479;28;20029;-60
2022/06/18 04:20:36;;;;;;;32.75;5.22;;;;;;;17.27;100.00;98443.88;5010833;28;20037;-58
2022/06/18 04:23:02;;;;;;;31.08;5.15;;;;;;;17.57;100.00;98448.19;5012673;28;20400;-58
2022/06/18 04:25:28;;;;;;;30.67;5.32;;;;;;;17.59;100.00;98441.03;5008823;28;20449;-58
2022/06/18 04:27:57;;;;;;;30.05;5.20;;;;;;;17.49;100.00;98441.59;5011655;28;20480;-59
2022/06/18 04:30:27;;;;;;;30.85;5.30;;;;;;;17.76;100.00;98446.09;5009337;28;20515;-59
2022/06/18 04:32:53;;;;;;;28.92;5.07;;;;;;;17.76;100.00;98447.91;5012261;28;20022;-59
2022/06/18 04:35:19;;;;;;;28.92;4.80;;;;;;;18.12;100.00;98447.34;5010653;28;20026;-59
2022/06/18 04:37:46;;;;;;;35.30;5.32;;;;;;;18.81;100.00;98445.47;5012357;28;20033;-58
2022/06/18 04:40:21;;;;;;;42.40;6.00;;;;;;;17.98;100.00;98447.41;5012136;28;20044;-58
2022/06/18 04:42:47;;;;;;;22.33;4.28;;;;;;;18.30;100.00;98446.16;5011199;28;20599;-59
2022/06/18 04:45:13;;;;;;;29.88;4.93;;;;;;;18.10;100.00;98446.59;5012514;28;20029;-59
2022/06/18 04:47:42;;;;;;;32.25;5.20;;;;;;;19.33;100.00;98443.66;5013017;28;20072;-59
2022/06/18 04:50:15;;;;;;;37.95;5.70;;;;;;;18.79;100.00;98449.13;5009515;28;20117;-58
2022/06/18 04:52:40;;;;;;;31.80;5.38;;;;;;;18.61;100.00;98454.69;5010328;28;20029;-59
2022/06/18 04:55:06;;;;;;;30.55;5.05;;;;;;;20.26;100.00;98453.00;5011138;28;20037;-61
2022/06/18 04:57:32;;;;;;;27.80;4.60;;;;;;;20.19;100.00;98448.13;5010788;28;20021;-59
2022/06/18 04:59:57;;;;;;;41.92;6.15;;;;;;;21.06;100.00;98447.03;5009961;28;20034;-61
2022/06/18 05:02:29;;;;;;;20.05;4.15;;;;;;;22.76;88.13;98444.97;5011677;28;20760;-60
2022/06/18 05:04:55;;;;;;;;;;;;;;;23.36;79.80;98442.53;5010946;28;20079;-60
2022/06/18 05:07:20;;;;;;;24.67;4.53;;;;;;;24.44;71.13;98441.84;5011730;28;19921;-61
2022/06/18 05:09:46;;;;;;;27.52;5.03;;;;;;;25.73;59.71;98442.28;5010089;28;20375;-60
2022/06/18 05:12:12;;;;;;;20.38;3.95;;;;;;;25.46;61.23;98446.66;5010319;28;20088;-60
2022/06/18 05:14:38;;;;;;;25.55;4.53;;;;;;;27.30;55.01;98435.59;5015268;28;20039;-60
2022/06/18 05:17:06;;;;;;;19.65;4.00;;;;;;;26.11;54.40;98443.09;5011416;28;20042;-59
2022/06/18 05:19:33;;;;;;;22.25;4.40;;;;;;;27.49;50.99;98434.50;5011692;28;20029;-60
2022/06/18 05:21:59;;;;;;;22.48;4.53;;;;;;;28.29;50.67;98440.47;5010610;28;20040;-59
2022/06/18 05:24:25;;;;;;;22.20;4.35;;;;;;;29.19;47.39;98445.91;5010126;28;20022;-59
2022/06/18 05:26:55;;;;;;;18.48;3.88;;;;;;;28.96;47.01;98435.81;5010050;28;20045;-61
2022/06/18 05:29:21;;;;;;;18.23;3.63;;;;;;;29.10;46.27;98438.84;5009571;28;20026;-60
2022/06/18 05:31:47;;;;;;;16.38;3.55;;;;;;;27.54;48.58;98427.84;5010168;28;20125;-59
2022/06/18 05:34:13;;;;;;;17.88;3.88;;;;;;;28.52;46.13;98433.47;5011780;28;20112;-60
2022/06/18 05:36:38;;;;;;;19.27;3.72;;;;;;;28.96;44.60;98441.19;5010943;28;20034;-60
2022/06/18 05:39:05;;;;;;;15.85;3.47;;;;;;;29.51;43.56;98441.47;5010403;28;20446;-61
2022/06/18 05:41:31;;;;;;;15.45;3.40;;;;;;;28.94;45.84;98426.28;5011108;28;20030;-60
2022/06/18 05:43:57;;;;;;;16.92;3.58;;;;;;;28.95;44.55;98423.44;5012346;28;20025;-61
2022/06/18 05:46:23;;;;;;;19.40;4.03;;;;;;;30.62;41.21;98431.47;5010825;28;20037;-62
2022/06/18 05:48:48;;;;;;;15.50;3.47;;;;;;;30.44;41.82;98424.53;5011600;28;20068;-63
2022/06/18 05:51:14;;;;;;;18.50;4.00;;;;;;;30.28;40.98;98428.16;5017348;28;20026;-63
2022/06/18 05:53:39;;;;;;;16.48;3.58;;;;;;;32.55;38.51;98422.47;5011744;28;20037;-60
2022/06/18 05:56:04;;;;;;;15.45;3.25;;;;;;;32.41;38.00;98408.84;5010820;28;20045;-60
2022/06/18 05:58:30;;;;;;;20.05;3.70;;;;;;;33.32;37.15;98413.53;5011748;28;20032;-60
2022/06/18 06:00:56;;;;;;;13.00;3.55;;;;;;;33.27;36.96;98415.16;5007797;28;20034;-60
2022/06/18 06:03:22;;;;;;;12.02;3.40;;;;;;;32.59;37.46;98412.97;5010292;28;20017;-60
2022/06/18 06:05:47;;;;;;;16.17;3.60;;;;;;;32.81;37.21;98411.06;5008800;28;20088;-60
2022/06/18 06:08:14;;;;;;;16.48;3.78;;;;;;;31.77;38.52;98403.34;5010957;28;20037;-60
2022/06/18 06:13:25;;;;;;;11.75;3.15;;;;;;;33.77;35.46;98405.06;5010912;28;20028;-60
2022/06/18 06:15:52;;;;;;;13.63;3.13;;;;;;;34.87;34.09;98399.41;5009171;28;20030;-60
2022/06/18 06:18:20;;;;;;;13.13;3.33;;;;;;;33.41;35.55;98406.94;5009701;28;20018;-59
2022/06/18 06:20:49;;;;;;;11.05;3.33;;;;;;;32.28;36.52;98403.31;5008503;28;20053;-60
2022/06/18 06:23:15;;;;;;;13.15;3.20;;;;;;;33.59;35.79;98403.69;5017761;28;20108;-62
2022/06/18 06:25:42;;;;;;;12.43;3.42;;;;;;;35.33;33.38;98398.56;5008303;28;20467;-60
2022/06/18 06:28:13;;;;;;;12.43;3.35;;;;;;;34.46;35.26;98406.69;5009390;28;20033;-60
2022/06/18 06:30:38;;;;;;;14.20;3.10;;;;;;;36.74;31.50;98398.66;5004796;28;20037;-61
2022/06/18 06:33:04;;;;;;;9.63;3.13;;;;;;;35.28;33.82;98406.50;5024850;28;20029;-60
2022/06/18 06:35:30;;;;;;;14.00;3.47;;;;;;;37.32;31.18;98397.50;5008953;28;20034;-62
2022/06/18 06:37:55;;;;;;;10.55;2.92;;;;;;;36.58;31.04;98394.56;5009068;28;20108;-61
2022/06/18 06:40:20;;;;;;;13.27;3.63;;;;;;;37.46;30.78;98396.31;5007355;28;20021;-61
2022/06/18 06:42:51;;;;;;;11.25;3.30;;;;;;;36.73;31.21;98388.88;5010497;28;20087;-61
2022/06/18 06:45:20;;;;;;;11.63;3.10;;;;;;;37.13;31.00;98391.19;5008085;28;20048;-61
2022/06/18 06:47:46;;;;;;;12.90;3.15;;;;;;;37.13;29.57;98385.75;5009533;28;20296;-60
2022/06/18 06:50:14;;;;;;;14.27;3.83;;;;;;;37.10;29.29;98380.78;5008432;28;20760;-58
2022/06/18 06:52:39;;;;;;;8.60;2.65;;;;;;;36.30;30.83;98376.81;5009167;28;20056;-61
2022/06/18 06:57:56;;;;;;;12.23;3.38;;;;;;;36.96;30.31;98374.63;5011598;28;20033;-61
2022/06/18 07:00:21;;;;;;;13.45;3.53;;;;;;;37.08;30.03;98367.41;5005548;28;20111;-60
2022/06/18 07:02:47;;;;;;;10.98;3.05;;;;;;;39.71;27.86;98376.56;5006581;28;20025;-61
2022/06/18 07:05:14;;;;;;;9.38;2.90;;;;;;;39.61;25.51;98368.19;5005626;28;20167;-60
2022/06/18 07:07:39;;;;;;;8.65;2.80;;;;;;;36.59;30.94;98372.63;5008763;28;20075;-61
2022/06/18 07:10:05;;;;;;;12.43;3.72;;;;;;;34.91;29.81;98373.59;5007430;28;20021;-61
2022/06/18 07:12:31;;;;;;;8.40;2.90;;;;;;;34.93;30.69;98371.50;5007558;28;20034;-62
2022/06/18 07:14:56;;;;;;;14.32;3.15;;;;;;;35.11;32.43;98374.38;5009923;28;20033;-61
2022/06/18 07:17:22;;;;;;;15.55;3.38;;;;;;;36.64;29.48;98367.38;5009593;28;20045;-61
2022/06/18 07:19:47;;;;;;;9.85;2.80;;;;;;;33.48;31.13;98363.69;5007849;28;20033;-60
2022/06/18 07:22:13;;;;;;;13.95;3.40;;;;;;;35.05;29.26;98358.97;5005510;28;20065;-60
2022/06/18 07:24:39;;;;;;;11.93;3.20;;;;;;;34.80;29.30;98361.50;5011301;28;20111;-60
2022/06/18 07:27:05;;;;;;;14.10;3.08;;;;;;;36.63;27.48;98354.84;5007501;28;20565;-61
2022/06/18 07:29:30;;;;;;;10.30;2.70;;;;;;;36.26;27.56;98349.28;5007718;28;20029;-63
2022/06/18 07:32:05;;;;;;;8.63;2.80;;;;;;;36.96;27.14;98353.69;5007110;28;20465;-60
2022/06/18 07:34:30;;;;;;;7.43;2.63;;;;;;;35.20;28.17;98344.34;5009094;28;20294;-61
2022/06/18 07:36:55;;;;;;;8.27;2.83;;;;;;;35.44;28.04;98335.50;5009080;28;20092;-60
2022/06/18 07:39:21;;;;;;;14.65;3.60;;;;;;;38.28;26.74;98333.22;5008008;28;20088;-61
2022/06/18 07:41:55;;;;;;;11.07;3.03;;;;;;;36.86;27.46;98331.66;5007857;28;20096;-62
2022/06/18 07:44:21;;;;;;;10.93;3.30;;;;;;;36.63;27.03;98327.69;5008689;28;20650;-61
2022/06/18 07:46:47;;;;;;;8.68;2.80;;;;;;;38.00;26.72;98331.94;5006705;28;20069;-61
2022/06/18 07:49:16;;;;;;;9.65;3.00;;;;;;;38.89;25.86;98327.59;5008517;28;20028;-62
2022/06/18 07:51:41;;;;;;;8.52;3.05;;;;;;;39.98;25.55;98329.59;5008999;28;20514;-63
2022/06/18 07:54:08;;;;;;;8.15;2.80;;;;;;;37.74;27.12;98322.28;5008978;28;20791;-60
2022/06/18 07:56:34;;;;;;;11.45;3.25;;;;;;;39.93;25.01;98321.31;5006687;28;20766;-60
2022/06/18 07:58:59;;;;;;;10.48;3.20;;;;;;;40.61;24.85;98321.34;5008697;28;20033;-60
2022/06/18 08:01:25;;;;;;;7.32;2.83;;;;;;;40.07;25.30;98316.34;5006951;28;20100;-61
2022/06/18 08:03:51;;;;;;;9.02;3.10;;;;;;;40.89;24.29;98320.41;5010008;28;20032;-61
2022/06/18 08:06:17;;;;;;;8.40;2.92;;;;;;;41.01;23.92;98325.78;5006705;28;20898;-61
2022/06/18 08:08:42;;;;;;;11.15;3.33;;;;;;;42.49;22.89;98331.25;5007081;28;20464;-62
2022/06/18 08:11:12;;;;;;;7.82;2.88;;;;;;;40.56;24.57;98318.53;5005087;28;20781;-61
2022/06/18 08:13:37;;;;;;;10.10;2.73;;;;;;;40.12;24.75;98310.16;5008020;28;20018;-62
2022/06/18 08:16:04;;;;;;;7.32;2.80;;;;;;;42.26;22.88;98307.75;5005517;28;20045;-61
2022/06/18 08:18:30;;;;;;;6.13;2.67;;;;;;;41.06;23.97;98308.59;5008422;28;20025;-61
2022/06/18 08:21:08;;;;;;;10.30;3.00;;;;;;;42.26;23.29;98307.75;5006375;28;20042;-61
2022/06/18 08:23:34;;;;;;;8.00;2.65;;;;;;;40.47;24.46;98294.34;5007012;28;20038;-61
2022/06/18 08:26:00;;;;;;;6.70;2.40;;;;;;;38.79;25.81;98295.47;5007969;28;20060;-60
2022/06/18 08:28:25;;;;;;;6.50;2.60;;;;;;;40.76;23.39;98290.69;5005195;28;20033;-61
2022/06/18 08:30:51;;;;;;;6.85;2.70;;;;;;;39.50;25.15;98285.28;5004827;28;20048;-61
2022/06/18 08:33:17;;;;;;;8.32;2.85;;;;;;;41.69;23.49;98292.69;5011034;28;20460;-61
2022/06/18 08:35:43;;;;;;;8.80;2.83;;;;;;;41.25;24.26;98298.19;5013183;28;20975;-61
2022/06/18 08:38:09;;;;;;;8.02;2.70;;;;;;;39.07;25.36;98291.19;5012481;28;20034;-61
2022/06/18 08:40:59;;;;;;;6.97;2.80;;;;;;;40.08;24.06;98291.53;5011576;28;20036;-61
2022/06/18 08:43:49;;;;;;;11.25;2.67;;;;;;;39.98;24.66;98291.38;5012886;28;20125;-61
2022/06/18 08:46:39;;;;;;;5.90;2.40;;;;;;;39.41;24.92;98281.25;5011403;28;20055;-61
2022/06/18 08:49:36;;;;;;;7.03;2.67;;;;;;;41.01;24.44;98282.84;5010603;28;20076;-61
2022/06/18 08:52:23;;;;;;;12.98;2.97;;;;;;;40.97;25.11;98283.59;5009206;28;20503;-60
2022/06/18 08:55:06;;;;;;;9.10;2.80;;;;;;;39.94;24.55;98281.97;5011471;28;20029;-61
2022/06/18 08:57:39;;;;;;;10.15;3.00;;;;;;;40.40;24.11;98271.84;5011239;28;20140;-60
2022/06/18 09:00:16;;;;;;;12.20;3.75;;;;;;;40.87;22.79;98272.53;5011341;28;20088;-61
2022/06/18 09:03:05;;;;;;;7.03;2.60;;;;;;;39.89;25.08;98265.50;5012291;28;20034;-62
2022/06/18 09:05:31;;;;;;;8.27;2.80;;;;;;;40.15;24.73;98263.22;5019425;28;20450;-61
2022/06/18 09:08:21;;;;;;;6.90;2.60;;;;;;;40.75;23.59;98258.94;5010466;28;20783;-62
2022/06/18 09:10:58;;;;;;;7.07;2.90;;;;;;;38.59;25.58;98256.88;5010357;28;20072;-60
2022/06/18 09:13:32;;;;;;;9.65;3.25;;;;;;;39.28;24.36;98249.63;5010920;28;20110;-60
2022/06/18 09:16:02;;;;;;;8.75;3.00;;;;;;;37.54;25.55;98256.41;5011420;28;20113;-62
2022/06/18 09:18:41;;;;;;;8.73;3.25;;;;;;;38.92;24.88;98251.59;5011928;28;20064;-61
2022/06/18 09:21:15;;;;;;;7.32;2.70;;;;;;;39.13;24.19;98241.97;5011049;28;20655;-61
2022/06/18 09:23:49;;;;;;;9.98;3.35;;;;;;;38.01;25.47;98245.63;5011001;28;20025;-62
2022/06/18 09:26:24;;;;;;;7.15;2.90;;;;;;;38.64;25.83;98243.34;5010782;28;20692;-61
2022/06/18 09:28:56;;;;;;;15.05;3.97;;;;;;;38.67;25.46;98242.88;5010998;28;20078;-61
2022/06/18 09:31:29;;;;;;;12.48;3.60;;;;;;;38.48;25.88;98234.81;5009218;28;21022;-61
2022/06/18 09:33:59;;;;;;;10.65;3.22;;;;;;;39.19;25.59;98239.34;5012143;28;20636;-63
2022/06/18 09:36:31;;;;;;;;;;;;;;;42.02;23.11;98236.00;5011773;28;20434;-60
2022/06/18 09:39:08;;;;;;;14.18;3.40;;;;;;;39.96;24.60;98236.16;5012001;28;19982;-61
2022/06/18 09:41:43;;;;;;;18.80;4.65;;;;;;;40.47;23.75;98234.22;5005767;28;20148;-62
2022/06/18 09:44:27;;;;;;;11.27;3.30;;;;;;;40.75;23.27;98228.84;5002844;28;20038;-60
2022/06/18 09:47:05;;;;;;;18.27;4.22;;;;;;;39.89;23.99;98221.81;5007991;28;20048;-60
2022/06/18 09:49:31;;;;;;;10.05;3.03;;;;;;;39.71;23.48;98220.13;5008394;28;20033;-58
2022/06/18 09:52:04;;;;;;;11.27;3.40;;;;;;;38.51;23.99;98209.00;5007863;28;20053;-58
2022/06/18 09:54:47;;;;;;;17.17;3.95;;;;;;;39.03;24.45;98208.22;5008610;28;20025;-58
2022/06/18 09:57:17;;;;;;;17.13;4.13;;;;;;;39.73;24.22;98208.97;5006185;28;20048;-59
2022/06/18 09:59:48;;;;;;;14.70;3.30;;;;;;;39.87;23.50;98213.06;5006793;28;20130;-59
2022/06/18 10:02:27;;;;;;;15.02;3.75;;;;;;;39.25;24.30;98211.09;5007176;28;20053;-64
2022/06/18 10:07:46;;;;;;;23.48;4.38;;;;;;;38.97;25.00;98199.06;5006594;28;20478;-61
2022/06/18 10:10:16;;;;;;;23.08;4.78;;;;;;;39.11;24.40;98205.09;5004457;28;20987;-62
2022/06/18 10:12:55;;;;;;;13.18;3.08;;;;;;;39.06;24.10;98207.72;5006544;28;20121;-59
2022/06/18 10:15:23;;;;;;;10.05;3.00;;;;;;;39.23;23.34;98208.59;5008370;28;20040;-60
2022/06/18 10:18:11;;;;;;;38.67;7.15;;;;;;;39.48;25.04;98211.03;5009349;28;20030;-60
2022/06/18 10:20:55;;;;;;;14.98;3.40;;;;;;;39.33;23.41;98203.31;5010189;28;20045;-60
2022/06/18 10:23:35;;;;;;;12.38;2.92;;;;;;;38.68;23.64;98200.94;5011992;28;20026;-60
2022/06/18 10:26:27;;;;;;;12.85;3.00;;;;;;;39.42;23.78;98184.66;5011310;28;20034;-60
2022/06/18 10:28:52;;;;;;;12.68;3.22;;;;;;;40.44;23.22;98196.47;5002454;28;20042;-60
2022/06/18 10:31:30;;;;;;;14.47;3.63;;;;;;;39.67;24.10;98197.16;5010577;28;20044;-60
2022/06/18 10:34:21;;;;;;;11.40;3.22;;;;;;;40.03;23.57;98184.91;5011697;28;20038;-60
2022/06/18 10:36:53;;;;;;;14.45;3.03;;;;;;;39.81;24.52;98184.00;5011912;28;20037;-62
2022/06/18 10:39:21;;;;;;;8.82;2.83;;;;;;;39.28;23.65;98183.31;5011457;28;20021;-61
2022/06/18 10:41:58;;;;;;;10.57;2.90;;;;;;;39.60;23.28;98172.72;5009398;28;20100;-60
2022/06/18 10:44:31;;;;;;;11.82;2.95;;;;;;;39.54;23.43;98168.28;5011415;28;20356;-60
2022/06/18 10:47:08;;;;;;;12.18;3.22;;;;;;;39.29;24.45;98169.44;5009679;28;20399;-61
2022/06/18 10:49:34;;;;;;;20.23;3.10;;;;;;;39.22;24.63;98167.94;5012117;28;20095;-62
2022/06/18 10:52:00;;;;;;;13.13;3.28;;;;;;;39.00;23.90;98171.31;5010508;28;20038;-61
2022/06/18 10:54:35;;;;;;;14.60;3.47;;;;;;;39.22;23.86;98160.56;5012182;28;20576;-62
2022/06/18 10:57:03;;;;;;;11.40;3.03;;;;;;;38.31;24.17;98158.41;5013315;28;20044;-61
2022/06/18 10:59:33;;;;;;;15.70;3.50;;;;;;;39.67;22.94;98154.28;5010616;28;20025;-60
2022/06/18 11:02:17;;;;;;;13.27;3.35;;;;;;;38.29;23.47;98154.25;5012244;28;20033;-60
2022/06/18 11:04:52;;;;;;;12.75;3.20;;;;;;;39.43;23.51;98153.59;5012086;28;20028;-60
2022/06/18 11:07:23;;;;;;;15.40;3.53;;;;;;;37.42;24.26;98153.81;5010847;28;20041;-62
2022/06/18 11:09:48;;;;;;;;;;;;;;;37.80;24.45;98152.59;5012303;28;20033;-62
2022/06/18 11:12:48;;;;;;;14.70;3.23;;;;;;;37.74;23.43;98153.53;5010889;28;19921;-62
2022/06/18 11:15:32;;;;;;;13.23;3.35;;;;;;;38.22;22.74;98151.69;5008952;28;20037;-61
2022/06/18 11:17:58;;;;;;;18.27;3.55;;;;;;;39.10;23.71;98148.91;5012346;28;20021;-59
2022/06/18 11:20:25;;;;;;;13.30;3.47;;;;;;;38.70;24.49;98147.81;5010270;28;20063;-59
2022/06/18 11:22:58;;;;;;;14.20;3.13;;;;;;;38.59;23.68;98140.50;5011725;28;20108;-60
2022/06/18 11:25:39;;;;;;;13.80;3.33;;;;;;;39.14;23.95;98139.16;5012480;28;20037;-60
2022/06/18 11:28:14;;;;;;;18.05;3.58;;;;;;;38.74;23.51;98140.00;5010919;28;20087;-61
2022/06/18 11:30:45;;;;;;;19.85;3.90;;;;;;;39.03;23.52;98137.31;5007831;28;20040;-60
2022/06/18 11:33:32;;;;;;;18.98;3.78;;;;;;;39.29;23.15;98133.16;5010764;28;20061;-62
2022/06/18 11:36:06;;;;;;;16.80;3.97;;;;;;;39.15;23.72;98124.44;5011014;28;20038;-60
2022/06/18 11:38:33;;;;;;;20.52;3.83;;;;;;;38.31;24.34;98130.38;5010366;28;20492;-60
2022/06/18 11:41:07;;;;;;;21.90;3.70;;;;;;;37.82;24.15;98116.16;5009259;28;20037;-61
2022/06/18 11:43:39;;;;;;;14.00;3.40;;;;;;;38.85;24.12;98114.56;5011038;28;20026;-61
2022/06/18 11:46:10;;;;;;;22.20;3.40;;;;;;;37.80;24.78;98109.03;5013116;28;20621;-61
2022/06/18 11:48:56;;;;;;;18.95;4.07;;;;;;;37.41;24.55;98100.47;5011032;28;20036;-60
2022/06/18 11:51:36;;;;;;;19.67;3.78;;;;;;;37.91;25.32;98099.22;5010926;28;20932;-60